map of CSL home
Great Circle Mapper logo
CSL - Airport
Location
City:  Los Cabos, Baja California Sur, México
Name:Aeropuerto Cabo San Lucas
ICAO / IATA:MMSL / CSL

Details
Type:Airport (Aerodrome, Airfield)
Latitude:22°56'54"N (22.948450)
Longitude:109°56'19"W (-109.938732)
Elevation:690 ft (210 m)
Runways:1
Longest:7000 × 100 ft (2134 × 30.5 m)

Time
Time Zone:UTC-7 (DST-6)
Local Time:

Weather
METAR:MMSL 202043Z 27012KT 12SM FEW035 28/16 A2984 RMK 8/100 ISOL SC MSGTX MMSD

Related Locations
Nearby:
Farthest:RRG: 11960 mi / 19247 km
Plaine Corail, Rodrigues Island, MU

Find:

   beyond  
but within

Other Information
Maps:
NOTAMs:
Links:
Sources:

  
flag of México   

Sectional Chart

Flight Planning
at skyvector.com

Satellite Image

Google Maps Satellite View

 

Copyright © 2004-2014 Karl L. Swartz. All rights reserved.
The Great Circle Mapper name and logo are trademarks of the Great Circle Mapper.
All other trademarks mentioned herein belong to their respective owners.
Please see credits for attibutions and further copyright information.

  Follow gcmap on Facebook Follow gcmap on Twitter

hCard Microformat

Geo Microformat